createdAt,value
2022-08-16T00:02:52.960Z,78.01
2022-08-16T00:05:36.083Z,77.60
2022-08-16T00:08:37.467Z,78.06
2022-08-16T00:11:21.489Z,77.60
2022-08-16T00:14:13.061Z,78.08
2022-08-16T00:17:06.638Z,77.35
2022-08-16T00:20:05.068Z,77.27
2022-08-16T00:23:01.034Z,77.16
2022-08-16T00:26:33.605Z,77.43
2022-08-16T00:28:54.924Z,77.25
2022-08-16T00:31:59.743Z,77.14
2022-08-16T00:34:53.211Z,77.59
2022-08-16T00:37:56.658Z,77.30
2022-08-16T00:40:53.703Z,76.88
2022-08-16T00:43:44.340Z,76.69
2022-08-16T00:46:54.041Z,77.02
2022-08-16T00:49:46.190Z,76.87
2022-08-16T00:52:51.162Z,77.37
2022-08-16T00:55:37.578Z,77.29
2022-08-16T00:58:34.857Z,77.14
2022-08-16T01:01:18.021Z,77.23
2022-08-16T01:04:29.569Z,76.48
2022-08-16T01:07:20.058Z,77.17
2022-08-16T01:10:15.865Z,77.12
2022-08-16T01:12:57.951Z,76.98
2022-08-16T01:15:54.060Z,76.86
2022-08-16T01:18:55.053Z,77.24
2022-08-16T01:22:49.428Z,76.89
2022-08-16T01:25:07.664Z,76.38
2022-08-16T01:27:59.718Z,76.92
2022-08-16T01:30:52.058Z,76.28
2022-08-16T01:33:35.865Z,76.73
2022-08-16T01:36:26.506Z,76.97
2022-08-16T01:39:19.029Z,76.86
2022-08-16T01:42:13.420Z,77.14
2022-08-16T01:45:00.017Z,76.50
2022-08-16T01:47:49.302Z,76.72
2022-08-16T01:50:43.049Z,76.17
2022-08-16T01:53:40.656Z,75.26
2022-08-16T01:56:40.962Z,75.87
2022-08-16T01:59:30.325Z,75.59
2022-08-16T02:02:26.512Z,75.66
2022-08-16T02:05:16.094Z,75.29
2022-08-16T02:07:58.735Z,75.27
2022-08-16T02:10:46.716Z,74.91
2022-08-16T02:13:32.668Z,75.32
2022-08-16T02:16:21.963Z,75.22
2022-08-16T02:19:16.063Z,75.38
2022-08-16T02:22:07.874Z,75.72
2022-08-16T02:24:51.473Z,75.11
2022-08-16T02:27:40.870Z,73.44
2022-08-16T02:30:35.864Z,74.00
2022-08-16T02:33:43.580Z,73.39
2022-08-16T02:36:42.235Z,73.18
2022-08-16T02:39:32.323Z,73.41
2022-08-16T02:42:23.029Z,72.37
2022-08-16T02:45:06.173Z,73.05
2022-08-16T02:48:01.808Z,73.34
2022-08-16T02:51:08.063Z,73.09
2022-08-16T02:54:02.831Z,73.67
2022-08-16T02:56:47.807Z,73.56
2022-08-16T02:59:39.883Z,72.32
2022-08-16T03:02:31.698Z,72.65
2022-08-16T03:05:24.811Z,71.87
2022-08-16T03:08:50.403Z,70.43
2022-08-16T03:11:21.598Z,69.31
2022-08-16T03:14:11.568Z,69.15
2022-08-16T03:17:02.099Z,69.33
2022-08-16T03:20:00.010Z,69.93
2022-08-16T03:22:53.791Z,69.92
2022-08-16T03:25:45.868Z,69.72
2022-08-16T03:28:29.953Z,69.68
2022-08-16T03:31:34.685Z,69.23
2022-08-16T03:34:35.779Z,68.39
2022-08-16T03:37:26.503Z,69.47
2022-08-16T03:40:23.304Z,69.06
2022-08-16T03:43:21.862Z,68.48
2022-08-16T03:46:13.010Z,67.62
2022-08-16T03:49:24.302Z,66.91
2022-08-16T03:52:23.622Z,66.43
2022-08-16T03:55:15.296Z,66.13
2022-08-16T03:57:58.799Z,66.50
2022-08-16T04:00:59.205Z,66.99
2022-08-16T04:03:43.030Z,66.57
2022-08-16T04:06:32.808Z,66.00
2022-08-16T04:09:16.275Z,64.95
2022-08-16T04:12:10.813Z,64.39
2022-08-16T04:14:53.068Z,64.40
2022-08-16T04:17:43.013Z,63.74
2022-08-16T04:20:33.847Z,63.93
2022-08-16T04:23:28.019Z,62.79
2022-08-16T04:26:16.620Z,62.82
2022-08-16T04:29:16.794Z,62.01
2022-08-16T04:32:05.312Z,61.22
2022-08-16T04:34:54.024Z,60.69
2022-08-16T04:37:44.024Z,61.08
2022-08-16T04:40:32.358Z,60.13
2022-08-16T04:43:22.773Z,61.42
2022-08-16T04:46:19.757Z,58.92
2022-08-16T04:49:18.769Z,59.65
2022-08-16T04:52:01.201Z,57.73
2022-08-16T04:54:51.762Z,59.88
2022-08-16T04:57:41.364Z,58.82
2022-08-16T05:00:32.574Z,58.58
2022-08-16T05:03:26.789Z,59.19
2022-08-16T05:06:09.410Z,61.37
2022-08-16T05:08:58.000Z,58.06
2022-08-16T05:11:46.822Z,56.86
2022-08-16T05:14:46.402Z,55.30
2022-08-16T05:17:41.491Z,54.51
2022-08-16T05:20:38.712Z,54.22
2022-08-16T05:23:26.924Z,53.88
2022-08-16T05:26:21.313Z,53.36
2022-08-16T05:29:04.823Z,55.26
2022-08-16T05:32:02.651Z,54.61
2022-08-16T05:34:50.931Z,54.30
2022-08-16T05:37:40.180Z,53.41
2022-08-16T05:40:30.049Z,56.02
2022-08-16T05:43:12.800Z,50.13
2022-08-16T05:45:59.062Z,51.25
2022-08-16T05:48:54.626Z,49.90
2022-08-16T05:51:45.885Z,51.46
2022-08-16T05:54:28.834Z,49.14
2022-08-16T05:57:18.384Z,53.28
2022-08-16T06:00:05.674Z,52.42
2022-08-16T06:02:54.694Z,52.14
2022-08-16T06:06:28.276Z,52.18
2022-08-16T06:09:12.928Z,51.63
2022-08-16T06:12:02.707Z,54.13
2022-08-16T06:14:45.474Z,51.73
2022-08-16T06:17:43.915Z,49.86
2022-08-16T06:20:35.869Z,51.08
2022-08-16T06:23:33.689Z,49.97
2022-08-16T06:26:24.289Z,49.14
2022-08-16T06:29:19.098Z,51.75
2022-08-16T06:32:27.357Z,50.40
2022-08-16T06:35:24.669Z,50.73
2022-08-16T06:38:06.227Z,51.41
2022-08-16T06:41:16.915Z,49.13
2022-08-16T06:44:05.948Z,49.74
2022-08-16T06:46:50.526Z,53.55
2022-08-16T06:49:40.072Z,48.87
2022-08-16T06:52:58.516Z,51.51
2022-08-16T06:55:24.880Z,49.82
2022-08-16T06:58:22.011Z,49.13
2022-08-16T07:01:22.906Z,48.19
2022-08-16T07:04:10.989Z,50.53
2022-08-16T07:06:53.765Z,50.55
2022-08-16T07:09:36.028Z,48.78
2022-08-16T07:12:47.178Z,53.92
2022-08-16T07:15:34.796Z,53.80
2022-08-16T07:18:20.811Z,54.21
2022-08-16T07:21:10.791Z,49.17
2022-08-16T07:24:05.769Z,49.85
2022-08-16T07:26:49.805Z,49.71
2022-08-16T07:29:40.073Z,49.96
2022-08-16T07:32:29.460Z,51.49
2022-08-16T07:35:21.031Z,51.80
2022-08-16T07:38:10.122Z,50.69
2022-08-16T07:41:09.654Z,52.64
2022-08-16T07:44:15.481Z,50.39
2022-08-16T07:46:59.042Z,51.07
2022-08-16T07:49:52.881Z,49.40
2022-08-16T07:52:41.306Z,46.54
2022-08-16T07:55:45.509Z,48.51
2022-08-16T07:58:36.414Z,49.28
2022-08-16T08:01:30.836Z,49.39
2022-08-16T08:04:15.141Z,50.70
2022-08-16T08:07:09.023Z,50.44
2022-08-16T08:09:52.364Z,48.50
2022-08-16T08:12:42.235Z,48.41
2022-08-16T08:15:29.474Z,48.84
2022-08-16T08:18:30.373Z,46.91
2022-08-16T08:21:14.346Z,47.13
2022-08-16T08:24:03.705Z,46.96
2022-08-16T08:26:52.118Z,49.42
2022-08-16T08:29:40.808Z,49.62
2022-08-16T08:32:58.863Z,48.62
2022-08-16T08:35:41.976Z,49.35
2022-08-16T08:38:45.386Z,50.86
2022-08-16T08:41:27.837Z,50.94
2022-08-16T08:44:29.292Z,52.33
2022-08-16T08:47:16.988Z,51.41
2022-08-16T08:50:00.069Z,51.66
2022-08-16T08:52:51.159Z,53.03
2022-08-16T08:55:43.310Z,51.04
2022-08-16T08:58:34.288Z,51.91
2022-08-16T09:01:36.667Z,51.71
2022-08-16T09:04:31.855Z,51.99
2022-08-16T09:07:23.664Z,50.55
2022-08-16T09:10:20.644Z,53.24
2022-08-16T09:13:10.772Z,53.10
2022-08-16T09:15:59.446Z,52.32
2022-08-16T09:18:54.937Z,52.83
2022-08-16T09:21:40.219Z,52.53
2022-08-16T09:24:52.108Z,53.15
2022-08-16T09:27:57.353Z,53.49
2022-08-16T09:30:46.291Z,52.40
2022-08-16T09:33:37.381Z,53.52
2022-08-16T09:36:37.038Z,52.66
2022-08-16T09:39:41.319Z,54.67
2022-08-16T09:42:24.809Z,55.08
2022-08-16T09:45:18.206Z,55.25
2022-08-16T09:48:02.810Z,55.43
2022-08-16T09:50:52.212Z,54.68
2022-08-16T09:53:39.716Z,56.28
2022-08-16T09:56:52.489Z,57.65
2022-08-16T09:59:38.525Z,57.79
2022-08-16T10:02:27.991Z,56.78
2022-08-16T10:05:11.140Z,55.71
2022-08-16T10:07:59.098Z,55.01
2022-08-16T10:10:43.051Z,55.19
2022-08-16T10:13:25.005Z,57.03
2022-08-16T10:16:21.940Z,57.82
2022-08-16T10:19:06.987Z,58.24
2022-08-16T10:21:57.954Z,55.65
2022-08-16T10:24:55.989Z,56.09
2022-08-16T10:27:46.148Z,58.31
2022-08-16T10:30:46.715Z,58.16
2022-08-16T10:33:44.961Z,57.28
2022-08-16T10:36:41.916Z,56.53
2022-08-16T10:39:41.492Z,59.91
2022-08-16T10:42:30.822Z,56.40
2022-08-16T10:45:13.495Z,58.20
2022-08-16T10:48:03.421Z,56.73
2022-08-16T10:50:53.461Z,58.15
2022-08-16T10:53:36.696Z,58.28
2022-08-16T10:56:52.091Z,57.44
2022-08-16T10:59:39.064Z,57.39
2022-08-16T11:03:37.516Z,57.88
2022-08-16T11:06:06.446Z,58.34
2022-08-16T11:08:49.021Z,58.85
2022-08-16T11:12:07.744Z,58.05
2022-08-16T11:15:11.379Z,56.46
2022-08-16T11:18:36.572Z,58.96
2022-08-16T11:20:57.932Z,57.70
2022-08-16T11:23:57.836Z,58.86
2022-08-16T11:27:18.635Z,58.08
2022-08-16T11:29:56.979Z,58.04
2022-08-16T11:32:40.512Z,58.64
2022-08-16T11:36:22.186Z,57.34
2022-08-16T11:38:51.161Z,57.38
2022-08-16T11:41:45.809Z,56.54
2022-08-16T11:44:53.102Z,57.37
2022-08-16T11:47:45.007Z,56.98
2022-08-16T11:50:26.981Z,56.38
2022-08-16T11:53:16.714Z,56.20
2022-08-16T11:56:00.509Z,55.69
2022-08-16T11:58:57.107Z,56.04
2022-08-16T12:01:44.442Z,54.84
2022-08-16T12:04:44.812Z,56.54
2022-08-16T12:07:29.229Z,55.33
2022-08-16T12:10:26.051Z,56.26
2022-08-16T12:13:10.478Z,55.50
2022-08-16T12:15:58.795Z,55.10
2022-08-16T12:18:41.346Z,54.11
2022-08-16T12:21:36.059Z,56.76
2022-08-16T12:24:35.007Z,53.90
2022-08-16T12:27:24.029Z,57.28
2022-08-16T12:30:06.401Z,59.13
2022-08-16T12:33:12.985Z,57.98
2022-08-16T12:35:56.603Z,58.35
2022-08-16T12:38:52.888Z,58.31
2022-08-16T12:41:38.480Z,59.80
2022-08-16T12:44:34.947Z,61.15
2022-08-16T12:47:42.713Z,61.12
2022-08-16T12:50:33.353Z,59.88
2022-08-16T12:53:16.983Z,61.90
2022-08-16T12:56:06.962Z,63.49
2022-08-16T12:58:52.044Z,61.17
2022-08-16T13:01:43.789Z,62.96
2022-08-16T13:04:33.271Z,60.83
2022-08-16T13:07:16.174Z,63.48
2022-08-16T13:10:21.121Z,63.41
2022-08-16T13:13:19.049Z,64.50
2022-08-16T13:16:20.213Z,63.87
2022-08-16T13:19:10.065Z,63.24
2022-08-16T13:21:52.273Z,64.25
2022-08-16T13:24:41.100Z,63.34
2022-08-16T13:27:59.474Z,64.63
2022-08-16T13:30:37.144Z,64.42
2022-08-16T13:33:29.745Z,65.02
2022-08-16T13:36:38.801Z,63.19
2022-08-16T13:39:40.420Z,66.20
2022-08-16T13:42:28.843Z,66.41
2022-08-16T13:45:15.613Z,63.77
2022-08-16T13:48:05.100Z,63.49
2022-08-16T13:50:51.342Z,66.17
2022-08-16T13:53:41.219Z,64.48
2022-08-16T13:56:25.461Z,65.60
2022-08-16T13:59:21.291Z,64.36
2022-08-16T14:02:06.348Z,64.54
2022-08-16T14:05:05.016Z,64.88
2022-08-16T14:07:54.707Z,64.87
2022-08-16T14:10:44.387Z,64.96
2022-08-16T14:13:29.094Z,66.38
2022-08-16T14:16:33.987Z,66.64
2022-08-16T14:19:18.988Z,66.08
2022-08-16T14:22:14.882Z,67.33
2022-08-16T14:24:58.711Z,66.21
2022-08-16T14:27:48.312Z,65.68
2022-08-16T14:30:33.795Z,67.25
2022-08-16T14:33:15.899Z,66.53
2022-08-16T14:36:06.040Z,66.50
2022-08-16T14:39:03.903Z,66.88
2022-08-16T14:42:02.081Z,68.46
2022-08-16T14:44:47.132Z,68.51
2022-08-16T14:47:36.114Z,67.49
2022-08-16T14:50:28.075Z,67.91
2022-08-16T14:53:21.081Z,69.16
2022-08-16T14:56:17.479Z,68.56
2022-08-16T14:59:11.996Z,68.57
2022-08-16T15:01:59.274Z,68.57
2022-08-16T15:04:49.390Z,69.43
2022-08-16T15:07:35.128Z,70.39
2022-08-16T15:10:26.615Z,69.23
2022-08-16T15:13:18.402Z,69.72
2022-08-16T15:16:03.023Z,70.67
2022-08-16T15:18:53.332Z,69.25
2022-08-16T15:21:37.863Z,70.17
2022-08-16T15:24:28.189Z,70.64
2022-08-16T15:27:10.778Z,70.90
2022-08-16T15:29:59.769Z,70.19
2022-08-16T15:32:42.744Z,70.12
2022-08-16T15:35:36.292Z,69.07
2022-08-16T15:38:54.801Z,69.40
2022-08-16T15:41:47.126Z,69.84
2022-08-16T15:44:52.972Z,69.77
2022-08-16T15:47:42.728Z,69.96
2022-08-16T15:50:38.475Z,69.28
2022-08-16T15:53:31.969Z,69.36
2022-08-16T15:56:20.309Z,68.23
2022-08-16T15:59:08.801Z,69.47
2022-08-16T16:01:52.249Z,69.10
2022-08-16T16:04:45.733Z,68.79
2022-08-16T16:07:30.233Z,69.07
2022-08-16T16:10:19.049Z,60.42
2022-08-16T16:13:09.047Z,65.57
2022-08-16T16:16:00.820Z,67.92
2022-08-16T16:18:49.748Z,69.13
2022-08-16T16:21:39.064Z,70.11
2022-08-16T16:24:30.566Z,70.18
2022-08-16T16:27:19.822Z,69.97
2022-08-16T16:30:32.570Z,70.32
2022-08-16T16:33:13.037Z,69.86
2022-08-16T16:36:06.817Z,69.97
2022-08-16T16:38:57.048Z,69.80
2022-08-16T16:41:46.296Z,69.92
2022-08-16T16:44:33.699Z,69.86
2022-08-16T16:47:25.033Z,69.64
2022-08-16T16:50:09.817Z,69.38
2022-08-16T16:53:17.585Z,69.21
2022-08-16T16:56:00.009Z,68.77
2022-08-16T16:59:04.697Z,68.53
2022-08-16T17:02:39.381Z,68.83
2022-08-16T17:05:12.970Z,69.04
2022-08-16T17:08:01.732Z,69.23
2022-08-16T17:10:50.751Z,69.25
2022-08-16T17:13:34.072Z,69.24
2022-08-16T17:16:18.740Z,68.71
2022-08-16T17:19:22.047Z,68.44
2022-08-16T17:22:06.794Z,68.60
2022-08-16T17:25:07.290Z,69.13
2022-08-16T17:27:50.897Z,68.95
2022-08-16T17:30:45.246Z,69.34
2022-08-16T17:33:27.282Z,68.96
2022-08-16T17:36:36.555Z,68.54
2022-08-16T17:39:19.791Z,68.55
2022-08-16T17:42:25.737Z,68.37
2022-08-16T17:45:15.037Z,69.33
2022-08-16T17:47:58.077Z,69.13
2022-08-16T17:50:48.983Z,68.83
2022-08-16T17:53:38.469Z,69.27
2022-08-16T17:56:27.965Z,69.24
2022-08-16T17:59:10.076Z,69.08
2022-08-16T18:01:58.961Z,69.61
2022-08-16T18:04:49.019Z,68.88
2022-08-16T18:07:38.821Z,68.42
2022-08-16T18:10:33.225Z,68.79
2022-08-16T18:13:24.971Z,69.74
2022-08-16T18:16:07.401Z,68.65
2022-08-16T18:18:56.036Z,69.11
2022-08-16T18:21:56.482Z,69.09
2022-08-16T18:24:45.693Z,68.82
2022-08-16T18:27:30.535Z,68.88
2022-08-16T18:30:18.788Z,68.15
2022-08-16T18:33:09.048Z,68.19
2022-08-16T18:35:58.060Z,68.65
2022-08-16T18:38:40.364Z,68.27
2022-08-16T18:41:38.147Z,68.46
2022-08-16T18:44:30.097Z,68.51
2022-08-16T18:47:13.804Z,68.45
2022-08-16T18:50:02.152Z,69.15
2022-08-16T18:52:44.049Z,69.07
2022-08-16T18:55:33.955Z,69.21
2022-08-16T18:58:16.858Z,69.20
2022-08-16T19:00:59.447Z,69.33
2022-08-16T19:03:47.831Z,69.86
2022-08-16T19:06:36.097Z,69.85
2022-08-16T19:09:18.027Z,69.96
2022-08-16T19:12:05.722Z,70.11
2022-08-16T19:14:55.023Z,70.16
2022-08-16T19:17:37.484Z,70.02
2022-08-16T19:20:27.051Z,70.46
2022-08-16T19:23:20.945Z,70.68
2022-08-16T19:26:10.737Z,70.31
2022-08-16T19:29:08.950Z,69.51
2022-08-16T19:31:52.091Z,69.43
2022-08-16T19:34:41.034Z,69.76
2022-08-16T19:37:23.211Z,67.98
2022-08-16T19:40:25.606Z,67.21
2022-08-16T19:43:30.732Z,67.04
2022-08-16T19:46:19.706Z,66.84
2022-08-16T19:49:02.509Z,66.98
2022-08-16T19:51:50.792Z,67.51
2022-08-16T19:54:41.048Z,66.76
2022-08-16T19:57:30.151Z,66.11
2022-08-16T20:00:20.322Z,66.15
2022-08-16T20:03:10.762Z,66.54
2022-08-16T20:05:56.448Z,66.52
2022-08-16T20:08:44.702Z,65.93
2022-08-16T20:11:27.329Z,65.87
2022-08-16T20:14:24.528Z,65.76
2022-08-16T20:17:08.086Z,66.58
2022-08-16T20:19:56.705Z,66.53
2022-08-16T20:22:53.629Z,66.21
2022-08-16T20:25:49.547Z,66.67
2022-08-16T20:28:52.075Z,65.80
2022-08-16T20:31:41.051Z,66.03
2022-08-16T20:34:24.100Z,66.14
2022-08-16T20:37:13.816Z,65.19
2022-08-16T20:40:18.236Z,65.51
2022-08-16T20:43:16.821Z,65.06
2022-08-16T20:46:05.149Z,65.31
2022-08-16T20:48:47.052Z,65.09
2022-08-16T20:51:46.882Z,65.17
2022-08-16T20:54:32.034Z,65.44
2022-08-16T20:57:15.825Z,65.21
2022-08-16T21:00:04.802Z,65.67
2022-08-16T21:02:47.643Z,66.02
2022-08-16T21:05:38.813Z,65.94
2022-08-16T21:08:50.844Z,66.03
2022-08-16T21:11:37.018Z,65.72
2022-08-16T21:14:19.235Z,66.07
2022-08-16T21:17:08.850Z,64.62
2022-08-16T21:19:57.312Z,64.83
2022-08-16T21:22:39.877Z,64.64
2022-08-16T21:25:23.378Z,64.55
2022-08-16T21:28:39.014Z,64.18
2022-08-16T21:31:25.030Z,64.91
2022-08-16T21:34:07.390Z,63.71
2022-08-16T21:36:55.853Z,64.57
2022-08-16T21:39:39.099Z,63.96
2022-08-16T21:42:27.786Z,63.51
2022-08-16T21:45:26.638Z,63.82
2022-08-16T21:48:16.035Z,64.59
2022-08-16T21:51:04.721Z,65.23
2022-08-16T21:53:53.085Z,63.75
2022-08-16T21:56:35.805Z,64.60
2022-08-16T21:59:18.126Z,64.18
2022-08-16T22:02:08.016Z,64.25
2022-08-16T22:04:57.191Z,64.61
2022-08-16T22:07:39.802Z,64.49
2022-08-16T22:11:07.732Z,65.04
2022-08-16T22:13:34.041Z,65.35
2022-08-16T22:16:18.796Z,65.79
2022-08-16T22:19:07.772Z,65.29
2022-08-16T22:21:56.738Z,65.17
2022-08-16T22:24:38.862Z,65.00
2022-08-16T22:27:20.887Z,66.54
2022-08-16T22:30:09.775Z,66.42
2022-08-16T22:32:52.692Z,66.33
2022-08-16T22:35:41.796Z,65.80
2022-08-16T22:38:54.577Z,65.99
2022-08-16T22:41:34.253Z,66.20
2022-08-16T22:44:28.888Z,66.90
2022-08-16T22:47:18.023Z,67.60
2022-08-16T22:50:06.772Z,66.33
2022-08-16T22:52:58.430Z,67.04
2022-08-16T22:55:41.940Z,66.78
2022-08-16T22:58:36.273Z,66.21
2022-08-16T23:01:20.117Z,66.81
2022-08-16T23:04:09.067Z,65.99
2022-08-16T23:06:51.029Z,66.72
2022-08-16T23:09:39.704Z,66.07
2022-08-16T23:12:30.775Z,66.00
2022-08-16T23:15:13.805Z,67.21
2022-08-16T23:18:03.043Z,66.77
2022-08-16T23:20:51.720Z,65.39
2022-08-16T23:23:42.045Z,65.91
2022-08-16T23:26:44.025Z,66.45
2022-08-16T23:29:31.360Z,65.67
2022-08-16T23:32:20.052Z,65.01
2022-08-16T23:35:01.940Z,64.58
2022-08-16T23:37:50.725Z,65.71
2022-08-16T23:40:40.841Z,65.67
2022-08-16T23:43:32.721Z,64.27
2022-08-16T23:46:25.318Z,64.31
2022-08-16T23:49:58.240Z,65.71
2022-08-16T23:52:17.060Z,63.73
2022-08-16T23:54:59.810Z,63.69
2022-08-16T23:57:49.045Z,63.06
